sensor_id;sensor_type;location;lat;lon;timestamp;noise_LAeq;noise_LA_min;noise_LA_max;noise_LA01;noise_LA95
37279;Laerm;7458;49.002;8.472;2023-11-18T00:01:24;76.91;44.69;89.20;;
37279;Laerm;7458;49.002;8.472;2023-11-18T00:03:51;77.24;44.35;89.31;;
37279;Laerm;7458;49.002;8.472;2023-11-18T00:06:17;77.21;45.11;89.21;;
37279;Laerm;7458;49.002;8.472;2023-11-18T00:08:43;77.01;45.51;89.26;;
37279;Laerm;7458;49.002;8.472;2023-11-18T00:11:09;76.89;45.14;89.21;;
37279;Laerm;7458;49.002;8.472;2023-11-18T00:13:39;77.30;44.35;89.21;;
37279;Laerm;7458;49.002;8.472;2023-11-18T00:16:06;77.63;43.49;89.27;;
37279;Laerm;7458;49.002;8.472;2023-11-18T00:18:32;77.06;42.76;89.21;;
37279;Laerm;7458;49.002;8.472;2023-11-18T00:20:59;77.24;42.53;89.21;;
37279;Laerm;7458;49.002;8.472;2023-11-18T00:23:25;77.06;45.39;89.26;;
37279;Laerm;7458;49.002;8.472;2023-11-18T00:25:52;77.25;44.51;89.21;;
37279;Laerm;7458;49.002;8.472;2023-11-18T00:28:19;77.11;40.43;89.53;;
37279;Laerm;7458;49.002;8.472;2023-11-18T00:30:45;77.23;44.27;89.55;;
37279;Laerm;7458;49.002;8.472;2023-11-18T00:33:11;77.03;43.63;89.21;;
37279;Laerm;7458;49.002;8.472;2023-11-18T00:35:37;76.88;43.54;89.15;;
37279;Laerm;7458;49.002;8.472;2023-11-18T00:38:03;76.94;45.14;89.33;;
37279;Laerm;7458;49.002;8.472;2023-11-18T00:40:29;76.81;45.20;89.25;;
37279;Laerm;7458;49.002;8.472;2023-11-18T00:42:58;77.06;45.57;89.14;;
37279;Laerm;7458;49.002;8.472;2023-11-18T00:45:24;77.34;44.62;89.26;;
37279;Laerm;7458;49.002;8.472;2023-11-18T00:47:50;77.14;43.09;89.48;;
37279;Laerm;7458;49.002;8.472;2023-11-18T00:50:17;77.33;44.51;89.48;;
37279;Laerm;7458;49.002;8.472;2023-11-18T00:52:42;77.28;45.42;89.58;;
37279;Laerm;7458;49.002;8.472;2023-11-18T00:55:09;77.40;45.04;89.22;;
37279;Laerm;7458;49.002;8.472;2023-11-18T00:57:36;77.13;43.99;89.21;;
37279;Laerm;7458;49.002;8.472;2023-11-18T01:00:11;77.11;45.45;89.65;;
37279;Laerm;7458;49.002;8.472;2023-11-18T01:02:40;76.87;42.53;89.21;;
37279;Laerm;7458;49.002;8.472;2023-11-18T01:05:06;77.30;45.27;89.21;;
37279;Laerm;7458;49.002;8.472;2023-11-18T01:07:35;77.13;45.45;89.21;;
37279;Laerm;7458;49.002;8.472;2023-11-18T01:10:02;77.07;42.35;89.19;;
37279;Laerm;7458;49.002;8.472;2023-11-18T01:12:29;77.17;45.39;89.25;;
37279;Laerm;7458;49.002;8.472;2023-11-18T01:14:55;77.30;43.19;89.21;;
37279;Laerm;7458;49.002;8.472;2023-11-18T01:17:21;77.15;41.30;89.21;;
37279;Laerm;7458;49.002;8.472;2023-11-18T01:19:48;77.15;44.76;89.13;;
37279;Laerm;7458;49.002;8.472;2023-11-18T01:22:14;77.39;42.59;89.24;;
37279;Laerm;7458;49.002;8.472;2023-11-18T01:24:40;77.17;42.65;89.26;;
37279;Laerm;7458;49.002;8.472;2023-11-18T01:27:06;77.02;43.94;89.06;;
37279;Laerm;7458;49.002;8.472;2023-11-18T01:29:36;77.38;45.48;89.48;;
37279;Laerm;7458;49.002;8.472;2023-11-18T01:32:02;77.15;45.54;89.44;;
37279;Laerm;7458;49.002;8.472;2023-11-18T01:34:37;76.98;45.57;89.28;;
37279;Laerm;7458;49.002;8.472;2023-11-18T01:37:09;77.28;44.62;89.21;;
37279;Laerm;7458;49.002;8.472;2023-11-18T01:39:35;77.22;45.72;89.24;;
37279;Laerm;7458;49.002;8.472;2023-11-18T01:42:03;77.09;45.36;89.21;;
37279;Laerm;7458;49.002;8.472;2023-11-18T01:44:29;77.18;45.77;89.21;;
37279;Laerm;7458;49.002;8.472;2023-11-18T01:46:57;77.22;45.89;89.25;;
37279;Laerm;7458;49.002;8.472;2023-11-18T01:49:24;76.90;45.63;89.27;;
37279;Laerm;7458;49.002;8.472;2023-11-18T01:51:53;77.08;45.48;89.14;;
37279;Laerm;7458;49.002;8.472;2023-11-18T01:54:21;77.36;43.77;89.28;;
37279;Laerm;7458;49.002;8.472;2023-11-18T01:56:48;77.36;45.17;89.25;;
37279;Laerm;7458;49.002;8.472;2023-11-18T01:59:15;77.34;42.76;89.21;;
37279;Laerm;7458;49.002;8.472;2023-11-18T02:01:48;77.49;44.39;89.44;;
37279;Laerm;7458;49.002;8.472;2023-11-18T02:04:16;77.43;45.28;89.56;;
37279;Laerm;7458;49.002;8.472;2023-11-18T02:06:43;77.49;45.45;89.29;;
37279;Laerm;7458;49.002;8.472;2023-11-18T02:09:11;77.21;45.54;89.26;;
37279;Laerm;7458;49.002;8.472;2023-11-18T02:11:56;77.46;45.69;89.46;;
37279;Laerm;7458;49.002;8.472;2023-11-18T02:14:26;77.56;44.51;89.25;;
37279;Laerm;7458;49.002;8.472;2023-11-18T02:16:56;77.69;45.20;90.81;;
37279;Laerm;7458;49.002;8.472;2023-11-18T02:19:26;77.10;45.45;89.21;;
37279;Laerm;7458;49.002;8.472;2023-11-18T02:21:57;77.29;45.23;89.60;;
37279;Laerm;7458;49.002;8.472;2023-11-18T02:24:27;77.40;45.36;89.26;;
37279;Laerm;7458;49.002;8.472;2023-11-18T02:26:56;77.38;44.58;89.21;;
37279;Laerm;7458;49.002;8.472;2023-11-18T02:29:24;77.24;45.42;89.21;;
37279;Laerm;7458;49.002;8.472;2023-11-18T02:31:57;77.43;45.69;89.25;;
37279;Laerm;7458;49.002;8.472;2023-11-18T02:34:30;77.21;45.11;89.50;;
37279;Laerm;7458;49.002;8.472;2023-11-18T02:36:59;77.21;45.97;89.29;;
37279;Laerm;7458;49.002;8.472;2023-11-18T02:40:03;77.67;44.47;89.26;;
37279;Laerm;7458;49.002;8.472;2023-11-18T02:42:37;77.31;46.13;89.21;;
37279;Laerm;7458;49.002;8.472;2023-11-18T02:45:06;77.23;46.33;89.72;;
37279;Laerm;7458;49.002;8.472;2023-11-18T02:47:33;77.41;43.81;89.55;;
37279;Laerm;7458;49.002;8.472;2023-11-18T02:49:59;77.35;45.91;89.21;;
37279;Laerm;7458;49.002;8.472;2023-11-18T02:52:31;77.39;44.11;89.51;;
37279;Laerm;7458;49.002;8.472;2023-11-18T02:54:59;77.37;46.23;89.69;;
37279;Laerm;7458;49.002;8.472;2023-11-18T02:57:25;77.46;46.07;89.29;;
37279;Laerm;7458;49.002;8.472;2023-11-18T02:59:51;77.24;46.15;89.24;;
37279;Laerm;7458;49.002;8.472;2023-11-18T03:02:17;77.24;45.39;89.26;;
37279;Laerm;7458;49.002;8.472;2023-11-18T03:04:46;77.53;45.66;89.52;;
37279;Laerm;7458;49.002;8.472;2023-11-18T03:07:12;77.74;46.25;89.19;;
37279;Laerm;7458;49.002;8.472;2023-11-18T03:09:39;77.66;44.47;89.54;;
37279;Laerm;7458;49.002;8.472;2023-11-18T03:12:06;77.70;45.94;89.36;;
37279;Laerm;7458;49.002;8.472;2023-11-18T03:14:34;77.50;44.94;89.21;;
37279;Laerm;7458;49.002;8.472;2023-11-18T03:17:01;77.69;45.97;89.18;;
37279;Laerm;7458;49.002;8.472;2023-11-18T03:19:28;77.41;45.91;89.44;;
37279;Laerm;7458;49.002;8.472;2023-11-18T03:21:55;77.65;45.51;89.26;;
37279;Laerm;7458;49.002;8.472;2023-11-18T03:24:21;77.42;45.91;89.21;;
37279;Laerm;7458;49.002;8.472;2023-11-18T03:26:47;77.88;44.31;89.50;;
37279;Laerm;7458;49.002;8.472;2023-11-18T03:29:14;77.62;44.89;89.22;;
37279;Laerm;7458;49.002;8.472;2023-11-18T03:31:39;77.46;43.63;89.22;;
37279;Laerm;7458;49.002;8.472;2023-11-18T03:34:05;77.89;45.99;89.17;;
37279;Laerm;7458;49.002;8.472;2023-11-18T03:36:32;77.46;45.63;89.28;;
37279;Laerm;7458;49.002;8.472;2023-11-18T03:38:58;77.75;45.69;89.62;;
37279;Laerm;7458;49.002;8.472;2023-11-18T03:41:24;77.18;45.48;89.21;;
37279;Laerm;7458;49.002;8.472;2023-11-18T03:43:50;77.71;46.10;89.21;;
37279;Laerm;7458;49.002;8.472;2023-11-18T03:46:16;77.61;45.75;89.30;;
37279;Laerm;7458;49.002;8.472;2023-11-18T03:48:44;77.59;45.94;89.48;;
37279;Laerm;7458;49.002;8.472;2023-11-18T03:51:10;77.61;46.10;89.26;;
37279;Laerm;7458;49.002;8.472;2023-11-18T03:53:36;77.16;46.20;89.41;;
37279;Laerm;7458;49.002;8.472;2023-11-18T03:56:02;77.51;43.90;89.27;;
37279;Laerm;7458;49.002;8.472;2023-11-18T03:58:29;77.64;44.94;89.25;;
37279;Laerm;7458;49.002;8.472;2023-11-18T04:00:55;77.29;45.72;89.25;;
37279;Laerm;7458;49.002;8.472;2023-11-18T04:03:22;77.27;45.39;89.25;;
37279;Laerm;7458;49.002;8.472;2023-11-18T04:05:48;77.53;45.72;89.21;;
37279;Laerm;7458;49.002;8.472;2023-11-18T04:08:15;77.68;45.54;89.29;;
37279;Laerm;7458;49.002;8.472;2023-11-18T04:10:41;77.67;45.89;89.26;;
37279;Laerm;7458;49.002;8.472;2023-11-18T04:13:07;77.62;46.10;89.53;;
37279;Laerm;7458;49.002;8.472;2023-11-18T04:15:33;77.56;42.16;89.31;;
37279;Laerm;7458;49.002;8.472;2023-11-18T04:18:01;77.45;45.65;89.26;;
37279;Laerm;7458;49.002;8.472;2023-11-18T04:20:27;77.65;44.94;89.21;;
37279;Laerm;7458;49.002;8.472;2023-11-18T04:22:53;77.34;45.60;89.21;;
37279;Laerm;7458;49.002;8.472;2023-11-18T04:25:19;77.87;46.25;89.27;;
37279;Laerm;7458;49.002;8.472;2023-11-18T04:27:46;77.27;45.94;89.63;;
37279;Laerm;7458;49.002;8.472;2023-11-18T04:30:13;77.37;44.90;89.21;;
37279;Laerm;7458;49.002;8.472;2023-11-18T04:32:39;77.35;45.14;89.51;;
37279;Laerm;7458;49.002;8.472;2023-11-18T04:35:08;77.47;44.65;89.73;;
37279;Laerm;7458;49.002;8.472;2023-11-18T04:37:35;77.60;45.77;89.87;;
37279;Laerm;7458;49.002;8.472;2023-11-18T04:40:02;77.41;45.89;89.82;;
37279;Laerm;7458;49.002;8.472;2023-11-18T04:42:29;77.55;45.99;89.25;;
37279;Laerm;7458;49.002;8.472;2023-11-18T04:44:58;77.63;45.23;89.27;;
37279;Laerm;7458;49.002;8.472;2023-11-18T04:47:25;77.23;45.01;89.28;;
37279;Laerm;7458;49.002;8.472;2023-11-18T04:49:51;77.23;43.44;89.29;;
37279;Laerm;7458;49.002;8.472;2023-11-18T04:52:18;77.70;43.63;89.66;;
37279;Laerm;7458;49.002;8.472;2023-11-18T04:54:44;77.46;45.23;89.21;;
37279;Laerm;7458;49.002;8.472;2023-11-18T04:57:14;77.54;44.07;89.58;;
37279;Laerm;7458;49.002;8.472;2023-11-18T04:59:41;77.85;45.91;89.21;;
37279;Laerm;7458;49.002;8.472;2023-11-18T05:02:07;77.72;45.07;89.21;;
37279;Laerm;7458;49.002;8.472;2023-11-18T05:04:33;77.66;43.39;89.36;;
37279;Laerm;7458;49.002;8.472;2023-11-18T05:06:59;77.98;45.72;89.32;;
37279;Laerm;7458;49.002;8.472;2023-11-18T05:09:25;77.72;45.14;91.83;;
37279;Laerm;7458;49.002;8.472;2023-11-18T05:11:51;77.73;45.72;89.21;;
37279;Laerm;7458;49.002;8.472;2023-11-18T05:14:18;78.00;45.54;89.24;;
37279;Laerm;7458;49.002;8.472;2023-11-18T05:16:45;77.84;44.03;89.32;;
37279;Laerm;7458;49.002;8.472;2023-11-18T05:19:10;77.94;44.43;89.65;;
37279;Laerm;7458;49.002;8.472;2023-11-18T05:21:36;77.99;45.91;89.21;;
37279;Laerm;7458;49.002;8.472;2023-11-18T05:24:02;77.75;45.45;89.20;;
37279;Laerm;7458;49.002;8.472;2023-11-18T05:26:28;78.16;41.75;89.26;;
37279;Laerm;7458;49.002;8.472;2023-11-18T05:28:55;77.84;45.51;89.31;;
37279;Laerm;7458;49.002;8.472;2023-11-18T05:31:21;78.10;45.01;89.29;;
37279;Laerm;7458;49.002;8.472;2023-11-18T05:33:47;77.86;46.02;89.59;;
37279;Laerm;7458;49.002;8.472;2023-11-18T05:36:17;77.97;43.14;89.23;;
37279;Laerm;7458;49.002;8.472;2023-11-18T05:38:52;78.06;43.54;89.59;;
37279;Laerm;7458;49.002;8.472;2023-11-18T05:41:20;78.12;44.69;89.62;;
37279;Laerm;7458;49.002;8.472;2023-11-18T05:43:54;77.87;44.23;89.71;;
37279;Laerm;7458;49.002;8.472;2023-11-18T05:46:24;77.90;45.45;89.31;;
37279;Laerm;7458;49.002;8.472;2023-11-18T05:48:52;78.26;44.03;89.27;;
37279;Laerm;7458;49.002;8.472;2023-11-18T05:51:26;78.07;45.36;89.30;;
37279;Laerm;7458;49.002;8.472;2023-11-18T05:53:52;78.34;44.11;89.21;;
37279;Laerm;7458;49.002;8.472;2023-11-18T05:56:19;78.11;44.62;89.54;;
37279;Laerm;7458;49.002;8.472;2023-11-18T05:58:47;78.24;44.39;89.25;;
37279;Laerm;7458;49.002;8.472;2023-11-18T06:01:15;77.83;43.29;89.22;;
37279;Laerm;7458;49.002;8.472;2023-11-18T06:03:43;77.81;45.83;89.20;;
37279;Laerm;7458;49.002;8.472;2023-11-18T06:06:12;78.25;44.39;90.97;;
37279;Laerm;7458;49.002;8.472;2023-11-18T06:08:39;77.78;44.58;89.21;;
37279;Laerm;7458;49.002;8.472;2023-11-18T06:11:14;78.05;42.47;89.54;;
37279;Laerm;7458;49.002;8.472;2023-11-18T06:13:41;77.97;43.44;89.25;;
37279;Laerm;7458;49.002;8.472;2023-11-18T06:16:12;77.93;44.54;89.48;;
37279;Laerm;7458;49.002;8.472;2023-11-18T06:18:41;78.14;45.63;89.63;;
37279;Laerm;7458;49.002;8.472;2023-11-18T06:21:10;78.14;42.76;89.26;;
37279;Laerm;7458;49.002;8.472;2023-11-18T06:23:36;77.96;42.53;89.21;;
37279;Laerm;7458;49.002;8.472;2023-11-18T06:26:03;77.97;46.01;89.50;;
37279;Laerm;7458;49.002;8.472;2023-11-18T06:28:30;78.19;44.65;90.89;;
37279;Laerm;7458;49.002;8.472;2023-11-18T06:30:58;77.93;45.72;89.23;;
37279;Laerm;7458;49.002;8.472;2023-11-18T06:33:24;78.03;43.90;89.29;;
37279;Laerm;7458;49.002;8.472;2023-11-18T06:35:54;78.18;45.60;89.17;;
37279;Laerm;7458;49.002;8.472;2023-11-18T06:38:21;78.30;45.54;89.56;;
37279;Laerm;7458;49.002;8.472;2023-11-18T06:40:47;78.18;45.36;89.10;;
37279;Laerm;7458;49.002;8.472;2023-11-18T06:43:18;78.14;45.04;89.65;;
37279;Laerm;7458;49.002;8.472;2023-11-18T06:45:45;78.40;44.31;89.22;;
37279;Laerm;7458;49.002;8.472;2023-11-18T06:48:12;78.05;43.90;89.21;;
37279;Laerm;7458;49.002;8.472;2023-11-18T06:50:40;78.23;45.91;89.66;;
37279;Laerm;7458;49.002;8.472;2023-11-18T06:53:10;78.58;44.43;90.53;;
37279;Laerm;7458;49.002;8.472;2023-11-18T06:55:37;78.23;42.98;89.28;;
37279;Laerm;7458;49.002;8.472;2023-11-18T06:58:03;78.20;45.20;89.58;;
37279;Laerm;7458;49.002;8.472;2023-11-18T07:00:29;78.28;44.47;89.54;;
37279;Laerm;7458;49.002;8.472;2023-11-18T07:02:56;78.21;45.14;89.75;;
37279;Laerm;7458;49.002;8.472;2023-11-18T07:05:22;78.67;44.54;89.18;;
37279;Laerm;7458;49.002;8.472;2023-11-18T07:07:50;78.81;45.27;89.80;;
37279;Laerm;7458;49.002;8.472;2023-11-18T07:10:17;78.51;45.97;89.46;;
37279;Laerm;7458;49.002;8.472;2023-11-18T07:12:46;78.44;44.07;89.68;;
37279;Laerm;7458;49.002;8.472;2023-11-18T07:15:16;78.70;43.19;89.89;;
37279;Laerm;7458;49.002;8.472;2023-11-18T07:17:42;78.42;45.17;90.01;;
37279;Laerm;7458;49.002;8.472;2023-11-18T07:20:10;78.23;45.04;90.62;;
37279;Laerm;7458;49.002;8.472;2023-11-18T07:22:39;78.58;45.04;91.63;;
37279;Laerm;7458;49.002;8.472;2023-11-18T07:25:06;78.37;44.65;90.52;;
37279;Laerm;7458;49.002;8.472;2023-11-18T07:27:34;78.21;43.72;91.80;;
37279;Laerm;7458;49.002;8.472;2023-11-18T07:30:01;78.57;45.14;89.30;;
37279;Laerm;7458;49.002;8.472;2023-11-18T07:32:27;78.54;44.07;89.75;;
37279;Laerm;7458;49.002;8.472;2023-11-18T07:34:54;78.63;44.27;89.67;;
37279;Laerm;7458;49.002;8.472;2023-11-18T07:37:21;78.59;43.68;89.58;;
37279;Laerm;7458;49.002;8.472;2023-11-18T07:39:48;79.09;45.07;92.86;;
37279;Laerm;7458;49.002;8.472;2023-11-18T07:42:14;79.02;42.76;89.56;;
37279;Laerm;7458;49.002;8.472;2023-11-18T07:44:41;78.32;45.20;89.31;;
37279;Laerm;7458;49.002;8.472;2023-11-18T07:47:08;78.65;45.01;90.75;;
37279;Laerm;7458;49.002;8.472;2023-11-18T07:49:34;78.65;44.54;90.52;;
37279;Laerm;7458;49.002;8.472;2023-11-18T07:52:02;78.62;43.99;91.75;;
37279;Laerm;7458;49.002;8.472;2023-11-18T07:54:28;78.78;43.80;90.88;;
37279;Laerm;7458;49.002;8.472;2023-11-18T07:56:54;79.09;43.63;90.55;;
37279;Laerm;7458;49.002;8.472;2023-11-18T07:59:21;79.12;44.03;91.69;;
37279;Laerm;7458;49.002;8.472;2023-11-18T08:01:47;79.04;44.19;91.76;;
37279;Laerm;7458;49.002;8.472;2023-11-18T08:04:14;78.81;43.58;91.91;;
37279;Laerm;7458;49.002;8.472;2023-11-18T08:06:41;78.74;42.22;90.64;;
37279;Laerm;7458;49.002;8.472;2023-11-18T08:09:09;79.19;43.34;90.85;;
37279;Laerm;7458;49.002;8.472;2023-11-18T08:11:39;79.08;44.47;91.79;;
37279;Laerm;7458;49.002;8.472;2023-11-18T08:14:07;80.01;44.62;92.04;;
37279;Laerm;7458;49.002;8.472;2023-11-18T08:16:36;79.94;42.53;91.81;;
37279;Laerm;7458;49.002;8.472;2023-11-18T08:19:02;78.98;44.15;92.00;;
37279;Laerm;7458;49.002;8.472;2023-11-18T08:21:28;78.96;42.76;91.02;;
37279;Laerm;7458;49.002;8.472;2023-11-18T08:23:55;78.97;42.22;92.87;;
37279;Laerm;7458;49.002;8.472;2023-11-18T08:26:21;79.21;43.86;90.87;;
37279;Laerm;7458;49.002;8.472;2023-11-18T08:28:47;79.60;44.07;91.90;;
37279;Laerm;7458;49.002;8.472;2023-11-18T08:31:14;79.12;42.98;91.92;;
37279;Laerm;7458;49.002;8.472;2023-11-18T08:33:42;79.54;43.37;92.05;;
37279;Laerm;7458;49.002;8.472;2023-11-18T08:36:09;79.48;42.65;92.69;;
37279;Laerm;7458;49.002;8.472;2023-11-18T08:38:35;79.72;44.03;91.72;;
37279;Laerm;7458;49.002;8.472;2023-11-18T08:41:02;79.49;43.34;90.92;;
37279;Laerm;7458;49.002;8.472;2023-11-18T08:43:29;79.66;43.58;90.62;;
37279;Laerm;7458;49.002;8.472;2023-11-18T08:45:56;79.68;43.68;90.20;;
37279;Laerm;7458;49.002;8.472;2023-11-18T08:48:22;79.26;43.54;91.98;;
37279;Laerm;7458;49.002;8.472;2023-11-18T08:50:49;79.39;42.29;90.55;;
37279;Laerm;7458;49.002;8.472;2023-11-18T08:53:15;79.60;43.19;91.75;;
37279;Laerm;7458;49.002;8.472;2023-11-18T08:55:44;79.75;43.54;91.94;;
37279;Laerm;7458;49.002;8.472;2023-11-18T08:58:22;79.57;42.35;91.86;;
37279;Laerm;7458;49.002;8.472;2023-11-18T09:00:57;80.02;42.29;91.95;;
37279;Laerm;7458;49.002;8.472;2023-11-18T09:03:39;79.75;42.29;91.29;;
37279;Laerm;7458;49.002;8.472;2023-11-18T09:06:10;80.22;42.93;91.83;;
37279;Laerm;7458;49.002;8.472;2023-11-18T09:08:52;79.99;43.39;91.77;;
37279;Laerm;7458;49.002;8.472;2023-11-18T09:11:24;80.31;48.28;92.02;;
37279;Laerm;7458;49.002;8.472;2023-11-18T09:13:54;80.15;47.81;92.81;;
37279;Laerm;7458;49.002;8.472;2023-11-18T09:16:25;80.68;49.80;91.93;;
37279;Laerm;7458;49.002;8.472;2023-11-18T09:18:55;80.27;48.08;90.94;;
37279;Laerm;7458;49.002;8.472;2023-11-18T09:21:25;80.48;49.53;92.17;;
37279;Laerm;7458;49.002;8.472;2023-11-18T09:23:55;80.53;41.68;92.00;;
37279;Laerm;7458;49.002;8.472;2023-11-18T09:26:22;79.83;41.53;91.91;;
37279;Laerm;7458;49.002;8.472;2023-11-18T09:28:48;79.85;43.49;92.79;;
37279;Laerm;7458;49.002;8.472;2023-11-18T09:31:16;80.16;42.47;91.79;;
37279;Laerm;7458;49.002;8.472;2023-11-18T09:33:43;80.70;43.99;92.85;;
37279;Laerm;7458;49.002;8.472;2023-11-18T09:36:19;80.68;48.61;94.40;;
37279;Laerm;7458;49.002;8.472;2023-11-18T09:38:46;81.05;48.98;92.75;;
37279;Laerm;7458;49.002;8.472;2023-11-18T09:41:12;80.83;49.36;91.80;;
37279;Laerm;7458;49.002;8.472;2023-11-18T09:43:43;81.12;48.15;92.82;;
37279;Laerm;7458;49.002;8.472;2023-11-18T09:46:13;80.78;46.66;91.90;;
37279;Laerm;7458;49.002;8.472;2023-11-18T09:48:51;80.80;42.71;92.08;;
37279;Laerm;7458;49.002;8.472;2023-11-18T09:51:27;81.13;48.49;92.39;;
37279;Laerm;7458;49.002;8.472;2023-11-18T09:54:14;81.14;46.50;91.93;;
37279;Laerm;7458;49.002;8.472;2023-11-18T09:57:16;81.03;47.83;93.16;;
37279;Laerm;7458;49.002;8.472;2023-11-18T10:00:08;80.64;42.64;92.68;;
37279;Laerm;7458;49.002;8.472;2023-11-18T10:02:47;80.52;42.16;91.88;;
37279;Laerm;7458;49.002;8.472;2023-11-18T10:05:16;81.14;41.75;93.05;;
37279;Laerm;7458;49.002;8.472;2023-11-18T10:07:47;81.02;42.65;92.94;;
37279;Laerm;7458;49.002;8.472;2023-11-18T10:10:14;81.47;42.41;93.17;;
37279;Laerm;7458;49.002;8.472;2023-11-18T10:12:44;80.88;41.22;93.44;;
37279;Laerm;7458;49.002;8.472;2023-11-18T10:15:15;81.53;41.61;93.18;;
37279;Laerm;7458;49.002;8.472;2023-11-18T10:17:44;81.53;41.89;92.98;;
37279;Laerm;7458;49.002;8.472;2023-11-18T10:20:47;81.36;42.53;92.27;;
37279;Laerm;7458;49.002;8.472;2023-11-18T10:23:18;81.35;42.65;92.68;;
37279;Laerm;7458;49.002;8.472;2023-11-18T10:25:54;81.78;41.82;92.62;;
37279;Laerm;7458;49.002;8.472;2023-11-18T10:28:33;81.74;46.93;93.94;;
37279;Laerm;7458;49.002;8.472;2023-11-18T10:31:00;82.06;46.87;92.90;;
37279;Laerm;7458;49.002;8.472;2023-11-18T10:33:34;81.77;45.89;93.64;;
37279;Laerm;7458;49.002;8.472;2023-11-18T10:36:02;81.96;48.43;93.21;;
37279;Laerm;7458;49.002;8.472;2023-11-18T10:38:38;81.80;47.54;93.07;;
37279;Laerm;7458;49.002;8.472;2023-11-18T10:41:09;81.99;46.57;94.16;;
37279;Laerm;7458;49.002;8.472;2023-11-18T10:43:35;82.02;47.57;93.50;;
37279;Laerm;7458;49.002;8.472;2023-11-18T10:46:12;81.62;47.72;93.04;;
37279;Laerm;7458;49.002;8.472;2023-11-18T10:48:50;81.25;42.22;93.00;;
37279;Laerm;7458;49.002;8.472;2023-11-18T10:51:17;81.83;42.41;92.81;;
37279;Laerm;7458;49.002;8.472;2023-11-18T10:53:52;81.21;40.62;93.04;;
37279;Laerm;7458;49.002;8.472;2023-11-18T10:56:22;81.56;43.46;92.90;;
37279;Laerm;7458;49.002;8.472;2023-11-18T10:59:00;81.25;42.03;91.98;;
37279;Laerm;7458;49.002;8.472;2023-11-18T11:01:36;81.50;43.09;93.02;;
37279;Laerm;7458;49.002;8.472;2023-11-18T11:04:09;82.44;47.34;93.29;;
37279;Laerm;7458;49.002;8.472;2023-11-18T11:06:46;82.32;43.04;93.59;;
37279;Laerm;7458;49.002;8.472;2023-11-18T11:09:23;81.88;42.03;93.72;;
37279;Laerm;7458;49.002;8.472;2023-11-18T11:12:10;81.81;41.75;93.54;;
37279;Laerm;7458;49.002;8.472;2023-11-18T11:15:02;81.60;40.33;93.33;;
37279;Laerm;7458;49.002;8.472;2023-11-18T11:17:34;82.16;40.03;93.67;;
37279;Laerm;7458;49.002;8.472;2023-11-18T11:20:07;82.76;43.54;93.61;;
37279;Laerm;7458;49.002;8.472;2023-11-18T11:26:17;83.06;48.77;93.54;;
37279;Laerm;7458;49.002;8.472;2023-11-18T11:31:40;82.88;49.38;93.77;;
37279;Laerm;7458;49.002;8.472;2023-11-18T11:34:17;83.15;47.26;92.95;;
37279;Laerm;7458;49.002;8.472;2023-11-18T11:36:49;83.15;47.85;93.63;;
37279;Laerm;7458;49.002;8.472;2023-11-18T11:39:17;83.37;46.13;93.45;;
37279;Laerm;7458;49.002;8.472;2023-11-18T11:41:51;83.68;47.40;93.91;;
37279;Laerm;7458;49.002;8.472;2023-11-18T11:44:18;83.69;50.32;94.92;;
37279;Laerm;7458;49.002;8.472;2023-11-18T11:46:47;83.76;45.75;94.41;;
37279;Laerm;7458;49.002;8.472;2023-11-18T11:49:21;83.56;48.36;94.44;;
37279;Laerm;7458;49.002;8.472;2023-11-18T11:52:16;83.63;48.23;93.71;;
37279;Laerm;7458;49.002;8.472;2023-11-18T11:54:56;84.04;49.24;94.53;;
37279;Laerm;7458;49.002;8.472;2023-11-18T11:57:28;84.10;49.24;94.15;;
37279;Laerm;7458;49.002;8.472;2023-11-18T11:59:54;84.08;44.11;94.70;;
37279;Laerm;7458;49.002;8.472;2023-11-18T12:02:26;83.45;40.98;95.41;;
37279;Laerm;7458;49.002;8.472;2023-11-18T12:04:57;84.23;41.30;94.56;;
37279;Laerm;7458;49.002;8.472;2023-11-18T12:07:32;83.59;40.71;95.73;;
37279;Laerm;7458;49.002;8.472;2023-11-18T12:10:08;84.07;41.22;94.63;;
37279;Laerm;7458;49.002;8.472;2023-11-18T12:12:49;84.05;42.16;95.52;;
37279;Laerm;7458;49.002;8.472;2023-11-18T12:15:54;84.31;41.82;95.08;;
37279;Laerm;7458;49.002;8.472;2023-11-18T12:18:23;84.01;41.46;94.68;;
37279;Laerm;7458;49.002;8.472;2023-11-18T12:20:50;83.38;40.98;95.42;;
37279;Laerm;7458;49.002;8.472;2023-11-18T12:23:30;83.97;42.29;94.20;;
37279;Laerm;7458;49.002;8.472;2023-11-18T12:25:56;83.96;41.46;95.09;;
37279;Laerm;7458;49.002;8.472;2023-11-18T12:28:32;84.77;40.89;95.46;;
37279;Laerm;7458;49.002;8.472;2023-11-18T12:31:04;84.81;41.30;95.45;;
37279;Laerm;7458;49.002;8.472;2023-11-18T12:39:55;85.50;41.30;95.66;;
37279;Laerm;7458;49.002;8.472;2023-11-18T12:42:59;86.23;40.62;95.89;;
37279;Laerm;7458;49.002;8.472;2023-11-18T12:48:20;93.57;40.98;100.23;;
37279;Laerm;7458;49.002;8.472;2023-11-18T12:50:53;93.37;42.41;101.01;;
37279;Laerm;7458;49.002;8.472;2023-11-18T12:53:23;93.34;43.77;100.35;;
37279;Laerm;7458;49.002;8.472;2023-11-18T12:55:50;95.23;43.94;101.08;;
37279;Laerm;7458;49.002;8.472;2023-11-18T12:58:18;96.58;47.42;102.24;;
37279;Laerm;7458;49.002;8.472;2023-11-18T13:00:44;69.07;40.80;88.31;;
37279;Laerm;7458;49.002;8.472;2023-11-18T13:03:11;67.11;40.53;89.43;;
37279;Laerm;7458;49.002;8.472;2023-11-18T13:05:41;64.62;41.14;76.70;;
37279;Laerm;7458;49.002;8.472;2023-11-18T13:08:09;62.99;41.53;80.28;;
37279;Laerm;7458;49.002;8.472;2023-11-18T13:10:36;63.10;39.46;74.09;;
37279;Laerm;7458;49.002;8.472;2023-11-18T13:13:03;62.95;41.75;73.25;;
37279;Laerm;7458;49.002;8.472;2023-11-18T13:15:30;63.44;40.23;74.12;;
37279;Laerm;7458;49.002;8.472;2023-11-18T13:18:04;65.36;43.04;82.44;;
37279;Laerm;7458;49.002;8.472;2023-11-18T13:20:32;63.07;40.33;73.70;;
37279;Laerm;7458;49.002;8.472;2023-11-18T13:23:02;63.23;40.43;75.18;;
37279;Laerm;7458;49.002;8.472;2023-11-18T13:25:35;62.81;40.62;75.58;;
37279;Laerm;7458;49.002;8.472;2023-11-18T13:28:05;63.03;40.62;75.06;;
37279;Laerm;7458;49.002;8.472;2023-11-18T13:30:32;62.57;41.46;73.18;;
37279;Laerm;7458;49.002;8.472;2023-11-18T13:32:58;62.68;39.92;73.16;;
37279;Laerm;7458;49.002;8.472;2023-11-18T13:35:25;63.16;41.96;75.40;;
37279;Laerm;7458;49.002;8.472;2023-11-18T13:37:52;63.55;42.35;73.15;;
37279;Laerm;7458;49.002;8.472;2023-11-18T13:40:19;63.56;42.53;78.68;;
37279;Laerm;7458;49.002;8.472;2023-11-18T13:42:45;63.06;40.89;73.09;;
37279;Laerm;7458;49.002;8.472;2023-11-18T13:45:13;64.86;40.89;80.70;;
37279;Laerm;7458;49.002;8.472;2023-11-18T13:47:52;61.82;40.08;73.01;;
37279;Laerm;7458;49.002;8.472;2023-11-18T13:50:22;63.60;41.06;76.34;;
37279;Laerm;7458;49.002;8.472;2023-11-18T13:52:48;63.10;40.80;73.77;;
37279;Laerm;7458;49.002;8.472;2023-11-18T13:55:17;62.89;40.13;74.65;;
37279;Laerm;7458;49.002;8.472;2023-11-18T13:57:54;62.76;41.68;73.37;;
37279;Laerm;7458;49.002;8.472;2023-11-18T14:00:24;62.76;42.22;74.56;;
37279;Laerm;7458;49.002;8.472;2023-11-18T14:02:53;62.39;42.82;72.56;;
37279;Laerm;7458;49.002;8.472;2023-11-18T14:05:21;63.94;44.27;76.64;;
37279;Laerm;7458;49.002;8.472;2023-11-18T14:07:48;62.49;43.24;72.87;;
37279;Laerm;7458;49.002;8.472;2023-11-18T14:10:14;61.88;42.16;72.54;;
37279;Laerm;7458;49.002;8.472;2023-11-18T14:13:14;67.10;41.89;87.01;;
37279;Laerm;7458;49.002;8.472;2023-11-18T14:15:42;62.04;42.09;72.52;;
37279;Laerm;7458;49.002;8.472;2023-11-18T14:18:11;64.08;41.89;76.57;;
37279;Laerm;7458;49.002;8.472;2023-11-18T14:20:39;62.51;39.34;74.18;;
37279;Laerm;7458;49.002;8.472;2023-11-18T14:23:05;62.70;41.30;72.52;;
37279;Laerm;7458;49.002;8.472;2023-11-18T14:25:32;63.51;42.53;74.74;;